Time;durP1;ratioP1;P1;durP2;ratioP2;P2;SDS_P1;SDS_P2;PMS_P1;PMS_P2;Temp;Humidity;BMP_temperature;BMP_pressure;BME280_temperature;BME280_humidity;BME280_pressure;Samples;Min_cycle;Max_cycle;Signal;HPM_P1;HPM_P2
2021/11/19 00:01:53;;;;;;;17.42;9.25;;;11.50;92.60;;;;;;5044349;28;20039;-77
2021/11/19 00:04:25;;;;;;;17.20;8.48;;;11.50;92.50;;;;;;5030336;28;20378;-76
2021/11/19 00:06:53;;;;;;;18.55;9.23;;;11.40;92.50;;;;;;5032814;28;20052;-76
2021/11/19 00:09:22;;;;;;;16.95;8.60;;;11.50;92.60;;;;;;5047137;28;20068;-76
2021/11/19 00:11:50;;;;;;;23.02;11.40;;;11.40;92.50;;;;;;5034240;28;20061;-76
2021/11/19 00:14:19;;;;;;;21.98;13.77;;;11.40;92.50;;;;;;5032130;28;20045;-76
2021/11/19 00:16:49;;;;;;;29.10;16.10;;;11.40;92.80;;;;;;5027829;28;20036;-79
2021/11/19 00:19:17;;;;;;;30.02;18.67;;;11.40;92.60;;;;;;5035759;28;20044;-75
2021/11/19 00:21:44;;;;;;;25.63;15.55;;;11.40;92.60;;;;;;5045809;28;20117;-77
2021/11/19 00:24:11;;;;;;;20.13;12.77;;;11.40;92.60;;;;;;5027657;28;20442;-76
2021/11/19 00:26:39;;;;;;;18.13;11.52;;;11.40;92.60;;;;;;5034749;28;20098;-76
2021/11/19 00:29:09;;;;;;;18.38;10.45;;;11.40;92.90;;;;;;4998005;28;20412;-76
2021/11/19 00:31:37;;;;;;;17.23;9.38;;;11.50;92.60;;;;;;5019148;28;20652;-76
2021/11/19 00:34:04;;;;;;;17.80;8.85;;;11.50;92.60;;;;;;5047871;28;20115;-76
2021/11/19 00:36:33;;;;;;;17.05;9.05;;;11.40;92.60;;;;;;5030952;28;20055;-76
2021/11/19 00:39:06;;;;;;;16.08;8.65;;;11.50;92.60;;;;;;5031812;28;20089;-76
2021/11/19 00:41:34;;;;;;;15.85;9.25;;;11.50;92.70;;;;;;5047017;28;20045;-77
2021/11/19 00:44:03;;;;;;;18.48;9.27;;;11.50;92.70;;;;;;5039679;28;20041;-76
2021/11/19 00:46:32;;;;;;;15.35;8.32;;;11.50;92.70;;;;;;5047726;28;20037;-76
2021/11/19 00:48:59;;;;;;;14.65;8.15;;;11.50;92.70;;;;;;5051375;28;20053;-76
2021/11/19 00:51:30;;;;;;;16.75;8.25;;;11.50;92.70;;;;;;5049294;28;20103;-76
2021/11/19 00:53:59;;;;;;;15.02;7.40;;;11.50;92.70;;;;;;5047552;28;20104;-77
2021/11/19 00:56:34;;;;;;;15.23;8.30;;;11.50;92.70;;;;;;5039822;28;20655;-77
2021/11/19 00:59:03;;;;;;;18.30;9.02;;;11.50;92.70;;;;;;5033765;28;20041;-76
2021/11/19 01:01:37;;;;;;;17.45;8.48;;;11.50;92.70;;;;;;5046783;28;20515;-76
2021/11/19 01:04:07;;;;;;;13.55;7.85;;;11.50;92.70;;;;;;5047570;28;20057;-76
2021/11/19 01:06:35;;;;;;;17.65;9.07;;;11.50;92.70;;;;;;5031327;28;20049;-76
2021/11/19 01:09:08;;;;;;;15.35;9.20;;;11.50;92.70;;;;;;5034385;28;20045;-76
2021/11/19 01:11:37;;;;;;;16.23;8.77;;;11.50;92.70;;;;;;5034215;28;20068;-76
2021/11/19 01:14:08;;;;;;;17.08;8.90;;;11.50;92.70;;;;;;5037973;28;20034;-76
2021/11/19 01:16:46;;;;;;;16.63;8.65;;;11.50;92.80;;;;;;5045205;28;20041;-76
2021/11/19 01:19:19;;;;;;;12.38;7.15;;;11.50;93.00;;;;;;5034072;28;20432;-76
2021/11/19 01:21:51;;;;;;;17.60;8.55;;;11.50;92.70;;;;;;5030175;28;20044;-76
2021/11/19 01:24:21;;;;;;;16.75;9.00;;;11.50;92.80;;;;;;5031517;28;20071;-76
2021/11/19 01:26:48;;;;;;;14.05;7.95;;;11.50;92.80;;;;;;5034394;28;20045;-76
2021/11/19 01:29:17;;;;;;;19.88;9.68;;;11.50;92.80;;;;;;5014720;28;20129;-76
2021/11/19 01:31:58;;;;;;;17.48;9.95;;;11.50;92.80;;;;;;5031686;28;20136;-77
2021/11/19 01:34:49;;;;;;;21.58;10.50;;;11.60;92.80;;;;;;5044601;28;20041;-77
2021/11/19 01:37:40;;;;;;;20.77;10.93;;;11.50;92.80;;;;;;5033910;28;20049;-76
2021/11/19 01:40:23;;;;;;;22.48;11.73;;;11.50;92.80;;;;;;5028792;28;20110;-76
2021/11/19 01:43:00;;;;;;;20.70;11.88;;;11.60;92.80;;;;;;5032105;28;20576;-76
2021/11/19 01:45:34;;;;;;;21.60;10.30;;;11.60;92.90;;;;;;5027833;28;20045;-76
2021/11/19 01:48:05;;;;;;;23.48;9.82;;;11.60;92.90;;;;;;5030207;28;20080;-76
2021/11/19 01:50:53;;;;;;;17.85;8.75;;;11.50;92.80;;;;;;5044065;28;20048;-76
2021/11/19 01:53:38;;;;;;;19.50;10.32;;;11.60;92.90;;;;;;5048728;28;20041;-76
2021/11/19 01:56:21;;;;;;;18.13;9.85;;;11.60;92.90;;;;;;5031887;28;20071;-77
2021/11/19 01:58:53;;;;;;;19.48;10.82;;;11.60;92.90;;;;;;5043950;28;20052;-76
2021/11/19 02:01:28;;;;;;;17.13;10.23;;;11.60;92.90;;;;;;5034742;28;20045;-76
2021/11/19 02:04:16;;;;;;;16.83;10.45;;;11.60;92.90;;;;;;5034258;28;20044;-76
2021/11/19 02:06:59;;;;;;;20.50;10.82;;;11.60;92.90;;;;;;5031401;28;20044;-76
2021/11/19 02:10:11;;;;;;;22.23;11.98;;;11.60;92.90;;;;;;5043616;28;20049;-76
2021/11/19 02:13:05;;;;;;;17.60;10.82;;;11.60;93.00;;;;;;5048168;28;20051;-76
2021/11/19 02:15:56;;;;;;;19.02;10.63;;;11.60;93.00;;;;;;5032371;28;20072;-77
2021/11/19 02:18:29;;;;;;;21.45;10.90;;;11.60;92.90;;;;;;5046846;28;20045;-77
2021/11/19 02:21:26;;;;;;;19.10;11.02;;;11.60;93.00;;;;;;5028323;28;20037;-76
2021/11/19 02:24:08;;;;;;;21.17;11.60;;;11.60;93.00;;;;;;5032176;28;20069;-76
2021/11/19 02:26:48;;;;;;;25.08;12.05;;;11.60;93.00;;;;;;5033119;28;20106;-76
2021/11/19 02:29:17;;;;;;;24.45;14.30;;;11.60;93.10;;;;;;5050285;28;20412;-76
2021/11/19 02:31:51;;;;;;;23.85;13.23;;;11.60;93.10;;;;;;5034610;28;20710;-76
2021/11/19 02:34:22;;;;;;;19.38;10.38;;;11.60;93.10;;;;;;5035428;28;20041;-76
2021/11/19 02:36:57;;;;;;;20.50;11.77;;;11.60;93.10;;;;;;5046149;28;20068;-76
2021/11/19 02:39:28;;;;;;;19.67;11.02;;;11.60;93.10;;;;;;5049372;28;20036;-76
2021/11/19 02:42:04;;;;;;;28.80;14.23;;;11.60;93.10;;;;;;5039285;28;20040;-76
2021/11/19 02:44:34;;;;;;;20.98;12.57;;;11.60;93.10;;;;;;5040317;28;20508;-76
2021/11/19 02:47:09;;;;;;;20.52;11.23;;;11.60;93.10;;;;;;5032710;28;20526;-76
2021/11/19 02:49:38;;;;;;;22.20;12.32;;;11.60;93.10;;;;;;5041673;28;20147;-76
2021/11/19 02:52:08;;;;;;;18.85;12.43;;;11.60;93.10;;;;;;5035458;28;20473;-76
2021/11/19 02:54:36;;;;;;;20.42;11.63;;;11.70;93.20;;;;;;5048993;28;20045;-76
2021/11/19 02:57:04;;;;;;;24.42;13.32;;;11.60;93.20;;;;;;5016442;28;20102;-76
2021/11/19 02:59:32;;;;;;;25.17;14.25;;;11.60;93.20;;;;;;5031992;28;20053;-76
2021/11/19 03:02:02;;;;;;;25.13;12.43;;;11.60;93.20;;;;;;5031790;28;20087;-76
2021/11/19 03:04:50;;;;;;;21.35;12.80;;;11.70;93.20;;;;;;5049271;28;20053;-76
2021/11/19 03:07:18;;;;;;;19.63;11.98;;;11.70;93.20;;;;;;5051458;28;20037;-75
2021/11/19 03:09:53;;;;;;;20.48;11.10;;;11.70;93.20;;;;;;5046972;28;20041;-76
2021/11/19 03:12:22;;;;;;;18.30;10.10;;;11.70;93.20;;;;;;5047142;28;20132;-76
2021/11/19 03:14:52;;;;;;;19.75;11.60;;;11.70;93.20;;;;;;5028289;28;20584;-76
2021/11/19 03:17:21;;;;;;;20.42;11.77;;;11.70;93.30;;;;;;5032395;28;20416;-76
2021/11/19 03:19:49;;;;;;;25.95;11.27;;;11.70;93.30;;;;;;5032393;28;20051;-76
2021/11/19 03:22:19;;;;;;;18.50;9.85;;;11.70;93.20;;;;;;5031092;28;20390;-76
2021/11/19 03:24:47;;;;;;;17.90;10.70;;;11.70;93.30;;;;;;5032289;28;20056;-76
2021/11/19 03:27:16;;;;;;;18.23;10.18;;;11.70;93.30;;;;;;5014996;28;20063;-76
2021/11/19 03:29:53;;;;;;;19.05;10.65;;;11.70;93.30;;;;;;5040439;28;20498;-76
2021/11/19 03:32:23;;;;;;;18.85;9.30;;;11.70;93.30;;;;;;5016903;28;20037;-76
2021/11/19 03:34:51;;;;;;;18.23;11.10;;;11.70;93.30;;;;;;5028423;28;20037;-76
2021/11/19 03:37:19;;;;;;;18.30;10.30;;;11.70;93.30;;;;;;5018832;28;20045;-76
2021/11/19 03:39:47;;;;;;;16.33;9.93;;;11.70;93.30;;;;;;5033058;28;20044;-76
2021/11/19 03:42:16;;;;;;;17.00;9.98;;;11.70;93.30;;;;;;5046578;28;20037;-77
2021/11/19 03:44:59;;;;;;;17.23;10.57;;;11.70;93.30;;;;;;5015849;28;20064;-76
2021/11/19 03:47:33;;;;;;;19.00;10.82;;;11.70;93.30;;;;;;5043794;28;20128;-76
2021/11/19 03:50:02;;;;;;;25.02;15.15;;;11.70;93.30;;;;;;5030631;28;20511;-76
2021/11/19 03:52:34;;;;;;;19.50;13.10;;;11.70;93.40;;;;;;5031888;28;20049;-76
2021/11/19 03:55:14;;;;;;;24.20;14.90;;;11.70;93.40;;;;;;5048710;28;20071;-76
2021/11/19 03:57:42;;;;;;;26.65;15.52;;;11.70;93.40;;;;;;5031834;28;20434;-76
2021/11/19 04:00:24;;;;;;;32.00;16.05;;;11.70;93.40;;;;;;5048389;28;20148;-76
2021/11/19 04:02:53;;;;;;;24.42;14.57;;;11.70;93.40;;;;;;5045547;28;20064;-77
2021/11/19 04:05:21;;;;;;;24.30;14.38;;;11.70;93.40;;;;;;5046316;28;20102;-76
2021/11/19 04:07:49;;;;;;;30.38;17.13;;;11.70;93.40;;;;;;5046729;28;20049;-76
2021/11/19 04:10:20;;;;;;;27.67;15.95;;;11.70;93.50;;;;;;5035659;28;20735;-76
2021/11/19 04:12:48;;;;;;;23.35;13.68;;;11.70;93.50;;;;;;5029345;28;20069;-76
2021/11/19 04:15:20;;;;;;;22.83;14.20;;;11.70;93.50;;;;;;5031612;28;20051;-76
2021/11/19 04:17:48;;;;;;;22.92;13.00;;;11.70;93.50;;;;;;5049171;28;20136;-76
2021/11/19 04:20:17;;;;;;;23.65;13.77;;;11.70;93.50;;;;;;5029545;28;20067;-76
2021/11/19 04:22:44;;;;;;;30.83;16.83;;;11.70;93.50;;;;;;5046329;28;20041;-77
2021/11/19 04:25:18;;;;;;;28.17;14.82;;;11.70;93.60;;;;;;5014452;28;20493;-76
2021/11/19 04:27:47;;;;;;;24.40;14.85;;;11.70;93.60;;;;;;5049457;28;20511;-76
2021/11/19 04:30:37;;;;;;;26.35;14.85;;;11.70;93.60;;;;;;5047654;28;20064;-77
2021/11/19 04:33:05;;;;;;;;;;;11.70;93.60;;;;;;5032579;28;20056;-76
2021/11/19 04:35:32;;;;;;;26.35;15.88;;;11.70;93.60;;;;;;5014854;28;19979;-76
2021/11/19 04:38:01;;;;;;;24.73;15.45;;;11.70;93.70;;;;;;5027422;28;20063;-77
2021/11/19 04:40:28;;;;;;;28.05;15.27;;;11.70;93.70;;;;;;5043763;28;20045;-76
2021/11/19 04:42:56;;;;;;;19.75;11.93;;;11.60;93.70;;;;;;5031454;28;20687;-76
2021/11/19 04:45:27;;;;;;;27.42;16.23;;;11.70;93.70;;;;;;5014782;28;20109;-77
2021/11/19 04:47:55;;;;;;;30.60;17.35;;;11.70;93.70;;;;;;5031244;28;20049;-77
2021/11/19 04:50:27;;;;;;;24.60;14.20;;;11.70;93.70;;;;;;5031117;28;20053;-76
2021/11/19 04:52:54;;;;;;;28.63;14.85;;;11.70;93.70;;;;;;5047578;28;20033;-76
2021/11/19 04:55:22;;;;;;;28.10;15.15;;;11.70;93.80;;;;;;5031664;28;20045;-77
2021/11/19 04:57:50;;;;;;;28.83;16.13;;;11.70;93.80;;;;;;5030865;28;20045;-77
2021/11/19 05:00:23;;;;;;;28.58;16.08;;;11.70;93.80;;;;;;5027120;28;20170;-77
2021/11/19 05:03:09;;;;;;;30.45;16.95;;;11.80;93.80;;;;;;5043203;28;20458;-76
2021/11/19 05:05:39;;;;;;;26.55;14.90;;;11.70;93.80;;;;;;5044230;28;20057;-76
2021/11/19 05:08:08;;;;;;;29.75;16.45;;;11.80;93.80;;;;;;5025131;28;20477;-76
2021/11/19 05:10:37;;;;;;;27.75;16.55;;;11.80;93.80;;;;;;5018102;28;20045;-77
2021/11/19 05:13:06;;;;;;;31.92;16.33;;;11.80;93.90;;;;;;5034325;28;20368;-76
2021/11/19 05:15:41;;;;;;;26.30;13.73;;;11.80;93.90;;;;;;5032010;28;20057;-76
2021/11/19 05:18:08;;;;;;;27.85;16.27;;;11.80;93.90;;;;;;5028357;28;20481;-77
2021/11/19 05:20:36;;;;;;;27.17;16.13;;;11.80;93.90;;;;;;5037519;28;20133;-76
2021/11/19 05:23:04;;;;;;;31.67;18.05;;;11.80;93.90;;;;;;5031051;28;20482;-76
2021/11/19 05:25:34;;;;;;;28.75;16.67;;;11.80;93.90;;;;;;5030736;28;20114;-77
2021/11/19 05:28:02;;;;;;;30.75;16.73;;;11.70;93.90;;;;;;5047487;28;20143;-77
2021/11/19 05:30:29;;;;;;;32.40;18.00;;;11.70;94.00;;;;;;5015001;28;20644;-76
2021/11/19 05:33:02;;;;;;;22.90;13.52;;;11.70;94.00;;;;;;5023694;28;20114;-77
2021/11/19 05:35:29;;;;;;;29.33;15.60;;;11.70;94.00;;;;;;5030676;28;20049;-77
2021/11/19 05:37:57;;;;;;;25.17;14.02;;;11.70;94.00;;;;;;5032306;28;20036;-77
2021/11/19 05:40:25;;;;;;;24.50;14.85;;;11.70;94.00;;;;;;5035272;28;20453;-77
2021/11/19 05:42:54;;;;;;;22.90;13.45;;;11.70;94.10;;;;;;5017523;28;20037;-77
2021/11/19 05:45:24;;;;;;;24.23;13.57;;;11.70;94.40;;;;;;5035044;28;20099;-77
2021/11/19 05:48:04;;;;;;;25.92;13.90;;;11.70;94.10;;;;;;5051372;28;20049;-76
2021/11/19 05:50:38;;;;;;;23.83;13.35;;;11.70;94.10;;;;;;5035122;28;20627;-76
2021/11/19 05:53:08;;;;;;;29.25;16.10;;;11.70;94.10;;;;;;5034060;28;20037;-76
2021/11/19 05:55:40;;;;;;;26.77;15.88;;;11.70;94.20;;;;;;5034787;28;20051;-77
2021/11/19 05:58:07;;;;;;;24.02;13.80;;;11.70;94.20;;;;;;5034235;28;20080;-77
2021/11/19 06:00:42;;;;;;;23.20;14.23;;;11.70;94.30;;;;;;5040991;28;20053;-77
2021/11/19 06:03:25;;;;;;;24.52;13.32;;;11.70;94.30;;;;;;5037021;28;20385;-77
2021/11/19 06:06:09;;;;;;;22.25;12.63;;;11.70;94.30;;;;;;5022748;28;20052;-77
2021/11/19 06:09:01;;;;;;;21.10;12.73;;;11.70;94.30;;;;;;5052639;28;20106;-77
2021/11/19 06:11:34;;;;;;;24.85;12.93;;;11.70;94.30;;;;;;5033715;28;20056;-77
2021/11/19 06:14:09;;;;;;;31.55;16.52;;;11.70;94.30;;;;;;5050293;28;20044;-77
2021/11/19 06:16:45;;;;;;;32.25;18.33;;;11.70;94.40;;;;;;5050157;28;20033;-77
2021/11/19 06:19:18;;;;;;;30.15;17.50;;;11.70;94.40;;;;;;5033779;28;20133;-76
2021/11/19 06:21:51;;;;;;;36.90;17.15;;;11.70;94.40;;;;;;5035935;28;20048;-77
2021/11/19 06:24:22;;;;;;;26.58;16.25;;;11.70;94.40;;;;;;5041887;28;20525;-77
2021/11/19 06:26:52;;;;;;;26.20;14.13;;;11.70;94.40;;;;;;5034348;28;20045;-77
2021/11/19 06:29:20;;;;;;;30.10;15.73;;;11.70;94.40;;;;;;5031824;28;20132;-77
2021/11/19 06:31:51;;;;;;;29.58;16.38;;;11.80;94.40;;;;;;5033828;28;20138;-77
2021/11/19 06:34:18;;;;;;;27.08;15.27;;;11.80;94.40;;;;;;5050800;28;20144;-77
2021/11/19 06:36:46;;;;;;;25.70;14.85;;;11.80;94.40;;;;;;5049819;28;20147;-77
2021/11/19 06:39:42;;;;;;;23.00;13.95;;;11.80;94.40;;;;;;5028943;28;20493;-77
2021/11/19 06:42:20;;;;;;;26.65;15.32;;;11.80;94.40;;;;;;5048754;28;20041;-76
2021/11/19 06:45:20;;;;;;;26.23;15.77;;;11.80;94.40;;;;;;5033323;28;20468;-77
2021/11/19 06:47:55;;;;;;;27.50;17.48;;;11.80;94.40;;;;;;5019035;28;20044;-77
2021/11/19 06:50:46;;;;;;;27.08;15.07;;;11.80;94.40;;;;;;5047040;28;20413;-77
2021/11/19 06:53:37;;;;;;;27.90;15.20;;;11.80;94.40;;;;;;5049204;28;20057;-77
2021/11/19 06:56:31;;;;;;;26.38;13.98;;;11.80;94.50;;;;;;5053654;28;20059;-77
2021/11/19 06:59:05;;;;;;;25.70;14.23;;;11.80;94.50;;;;;;5036551;28;20497;-77
2021/11/19 07:01:32;;;;;;;30.90;15.52;;;11.80;94.50;;;;;;5032383;28;20136;-76
2021/11/19 07:04:00;;;;;;;33.08;16.83;;;11.80;94.50;;;;;;5032476;28;20454;-78
2021/11/19 07:06:27;;;;;;;28.50;16.48;;;11.80;94.50;;;;;;5023119;28;20395;-76
2021/11/19 07:08:54;;;;;;;24.08;13.73;;;11.90;94.50;;;;;;5032491;28;20044;-77
2021/11/19 07:11:24;;;;;;;26.95;15.93;;;11.90;94.50;;;;;;5008742;28;20379;-76
2021/11/19 07:13:53;;;;;;;23.70;12.98;;;11.90;94.50;;;;;;5009581;28;20049;-77
2021/11/19 07:16:23;;;;;;;25.38;13.15;;;11.90;94.50;;;;;;5046948;28;20040;-77
2021/11/19 07:18:53;;;;;;;23.55;11.50;;;11.90;94.40;;;;;;5030785;28;20132;-77
2021/11/19 07:21:21;;;;;;;22.65;12.80;;;11.90;94.40;;;;;;5047019;28;20056;-77
2021/11/19 07:23:50;;;;;;;21.80;11.27;;;11.90;94.40;;;;;;5030528;28;20448;-77
2021/11/19 07:26:17;;;;;;;18.02;10.60;;;12.00;94.40;;;;;;5029962;28;20087;-77
2021/11/19 07:28:45;;;;;;;21.55;11.40;;;12.00;94.40;;;;;;5034816;28;20500;-77
2021/11/19 07:31:36;;;;;;;23.70;13.05;;;12.00;94.40;;;;;;5046404;28;20126;-77
2021/11/19 07:34:09;;;;;;;23.05;13.07;;;12.00;94.40;;;;;;5048537;28;20119;-77
2021/11/19 07:36:58;;;;;;;20.90;11.90;;;12.00;94.40;;;;;;5034538;28;20095;-77
2021/11/19 07:39:43;;;;;;;20.30;11.20;;;12.00;94.40;;;;;;5047318;28;20215;-77
2021/11/19 07:42:43;;;;;;;22.83;12.95;;;12.00;94.40;;;;;;5013694;28;20045;-77
2021/11/19 07:45:13;;;;;;;23.95;12.90;;;11.90;94.40;;;;;;5030613;28;20040;-77
2021/11/19 07:47:52;;;;;;;25.98;14.73;;;12.00;94.40;;;;;;5034691;28;20731;-77
2021/11/19 07:50:24;;;;;;;25.88;14.90;;;12.00;94.40;;;;;;5017107;28;20052;-77
2021/11/19 07:52:52;;;;;;;25.35;14.38;;;12.00;94.40;;;;;;5050627;28;20051;-77
2021/11/19 07:55:20;;;;;;;22.33;13.60;;;12.00;94.50;;;;;;5045974;28;20037;-77
2021/11/19 07:57:47;;;;;;;22.45;14.15;;;12.00;94.50;;;;;;5030143;28;20492;-77
2021/11/19 08:00:21;;;;;;;24.23;14.63;;;12.00;94.50;;;;;;5021229;28;20044;-77
2021/11/19 08:03:00;;;;;;;20.85;11.27;;;12.00;94.40;;;;;;5070236;28;20027;-77
2021/11/19 08:05:27;;;;;;;23.45;12.85;;;12.00;94.40;;;;;;5043737;28;20437;-76
2021/11/19 08:08:19;;;;;;;24.85;12.25;;;12.10;94.50;;;;;;5035120;28;20503;-77
2021/11/19 08:11:17;;;;;;;22.25;13.80;;;12.10;94.50;;;;;;5046772;28;20501;-77
2021/11/19 08:13:45;;;;;;;25.25;14.32;;;12.10;94.40;;;;;;5030051;28;20064;-77
2021/11/19 08:16:14;;;;;;;23.80;13.98;;;12.10;94.40;;;;;;5028214;28;20041;-77
2021/11/19 08:19:03;;;;;;;20.38;11.10;;;12.20;94.40;;;;;;5040702;28;20051;-77
2021/11/19 08:21:30;;;;;;;19.75;11.25;;;12.10;94.40;;;;;;5030070;28;20055;-77
2021/11/19 08:24:05;;;;;;;18.90;11.25;;;12.20;94.40;;;;;;5046028;28;20091;-77
2021/11/19 08:26:38;;;;;;;19.33;10.88;;;12.20;94.40;;;;;;5031503;28;20056;-77
2021/11/19 08:29:09;;;;;;;15.73;9.35;;;12.20;94.40;;;;;;5053987;28;20056;-77
2021/11/19 08:31:36;;;;;;;18.42;10.90;;;12.20;94.40;;;;;;5030227;28;20123;-76
2021/11/19 08:34:04;;;;;;;16.27;9.75;;;12.30;94.40;;;;;;5027825;28;20052;-77
2021/11/19 08:36:32;;;;;;;15.90;9.55;;;12.30;94.40;;;;;;5049442;28;20033;-77
2021/11/19 08:39:00;;;;;;;19.88;11.55;;;12.30;94.30;;;;;;5040938;28;20049;-77
2021/11/19 08:41:28;;;;;;;19.02;11.43;;;12.30;94.30;;;;;;5036896;28;20135;-77
2021/11/19 08:43:57;;;;;;;17.95;10.48;;;12.30;94.30;;;;;;5052111;28;20102;-77
2021/11/19 08:46:32;;;;;;;18.58;11.02;;;12.30;94.30;;;;;;5015479;28;20048;-77
2021/11/19 08:49:01;;;;;;;17.00;9.25;;;12.40;94.30;;;;;;5046180;28;20183;-76
2021/11/19 08:51:30;;;;;;;17.92;9.90;;;12.40;94.30;;;;;;5045834;28;20055;-76
2021/11/19 08:54:00;;;;;;;17.95;10.40;;;12.40;94.30;;;;;;5029183;28;20064;-76
2021/11/19 08:56:41;;;;;;;19.75;10.55;;;12.40;94.30;;;;;;5030479;28;20132;-76
2021/11/19 08:59:10;;;;;;;18.25;9.88;;;12.40;94.30;;;;;;5042690;28;20056;-75
2021/11/19 09:01:46;;;;;;;14.95;9.65;;;12.40;94.30;;;;;;5045489;28;20040;-76
2021/11/19 09:04:13;;;;;;;19.38;11.00;;;12.40;94.30;;;;;;5043460;28;20052;-76
2021/11/19 09:06:41;;;;;;;19.30;11.38;;;12.40;94.20;;;;;;5033992;28;20068;-76
2021/11/19 09:09:09;;;;;;;16.55;10.00;;;12.40;94.20;;;;;;5043404;28;20073;-76
2021/11/19 09:11:37;;;;;;;23.20;14.13;;;12.50;94.20;;;;;;5031632;28;20052;-75
2021/11/19 09:14:05;;;;;;;21.60;11.45;;;12.50;94.20;;;;;;5033465;28;20149;-76
2021/11/19 09:17:00;;;;;;;20.92;12.35;;;12.50;94.10;;;;;;5034742;28;20048;-75
2021/11/19 09:19:34;;;;;;;19.08;11.20;;;12.50;94.10;;;;;;5051281;28;20037;-75
2021/11/19 09:22:31;;;;;;;21.40;12.25;;;12.60;94.10;;;;;;5055423;28;20048;-77
2021/11/19 09:25:00;;;;;;;19.42;11.48;;;12.60;94.10;;;;;;5051294;28;20594;-76
2021/11/19 09:27:28;;;;;;;14.88;9.98;;;12.60;94.10;;;;;;5034034;28;20048;-77
2021/11/19 09:30:01;;;;;;;16.50;9.25;;;12.60;94.10;;;;;;5042664;28;20136;-75
2021/11/19 09:32:28;;;;;;;20.27;10.70;;;12.60;94.10;;;;;;5050923;28;20045;-78
2021/11/19 09:34:59;;;;;;;21.40;11.63;;;12.70;94.10;;;;;;5033736;28;20045;-82
2021/11/19 09:37:26;;;;;;;19.15;10.90;;;12.70;94.10;;;;;;5051083;28;20044;-86
2021/11/19 09:39:58;;;;;;;17.02;10.23;;;12.70;94.00;;;;;;5025264;28;20044;-82
2021/11/19 09:42:44;;;;;;;17.45;9.70;;;12.80;94.00;;;;;;5053661;28;20040;-79
2021/11/19 09:45:34;;;;;;;16.38;9.73;;;12.80;94.00;;;;;;5034444;28;20045;-79
2021/11/19 09:48:37;;;;;;;16.25;10.27;;;12.90;93.90;;;;;;5034394;28;20045;-79
2021/11/19 09:51:43;;;;;;;18.45;10.90;;;12.90;93.90;;;;;;5053759;28;20493;-79
2021/11/19 09:54:38;;;;;;;16.45;10.40;;;12.90;93.90;;;;;;5052674;28;20048;-80
2021/11/19 09:57:41;;;;;;;16.98;10.85;;;12.90;93.80;;;;;;5050190;28;20452;-82
2021/11/19 10:00:33;;;;;;;15.57;9.93;;;13.00;93.80;;;;;;5049923;28;20413;-83
2021/11/19 10:03:51;;;;;;;13.90;9.00;;;13.00;93.80;;;;;;5050521;28;20040;-81
2021/11/19 10:06:56;;;;;;;12.38;7.57;;;13.10;93.80;;;;;;5069159;28;20516;-80
2021/11/19 10:09:53;;;;;;;13.23;8.50;;;13.10;93.70;;;;;;5043472;28;20465;-80
2021/11/19 10:12:26;;;;;;;12.50;8.43;;;13.20;93.70;;;;;;5049284;28;20053;-78
2021/11/19 10:15:19;;;;;;;14.52;8.73;;;13.20;93.70;;;;;;5040467;28;20043;-81
2021/11/19 10:17:52;;;;;;;;;;;13.30;93.60;;;;;;5044565;28;20550;-80
2021/11/19 10:20:26;;;;;;;;;;;13.30;93.70;;;;;;5048699;28;20339;-78
2021/11/19 10:22:55;;;;;;;14.85;8.90;;;13.30;93.60;;;;;;5049872;28;19921;-81
2021/11/19 10:25:48;;;;;;;11.85;7.88;;;13.30;93.50;;;;;;5035638;28;20128;-80
2021/11/19 10:28:43;;;;;;;11.95;7.63;;;13.40;93.50;;;;;;5052674;28;20736;-82
2021/11/19 10:31:13;;;;;;;13.48;7.45;;;13.50;93.50;;;;;;5031210;28;20044;-81
2021/11/19 10:34:07;;;;;;;12.10;6.18;;;13.50;93.50;;;;;;5048097;28;20045;-80
2021/11/19 10:36:42;;;;;;;11.95;7.65;;;13.50;93.40;;;;;;5050463;28;20692;-81
2021/11/19 10:39:28;;;;;;;13.00;8.32;;;13.60;93.30;;;;;;5051251;28;20143;-81
2021/11/19 10:42:10;;;;;;;13.43;7.78;;;13.60;93.20;;;;;;5033884;28;20068;-81
2021/11/19 10:44:59;;;;;;;13.43;8.32;;;13.70;93.20;;;;;;5048224;28;20128;-83
2021/11/19 10:48:09;;;;;;;12.88;8.27;;;13.70;93.10;;;;;;5047274;28;20049;-84
2021/11/19 10:51:27;;;;;;;13.38;7.88;;;13.70;93.00;;;;;;5024353;28;20144;-85
2021/11/19 10:54:29;;;;;;;13.98;8.70;;;13.70;93.00;;;;;;5041616;28;20045;-83
2021/11/19 10:57:29;;;;;;;11.90;7.65;;;13.70;92.90;;;;;;5029313;28;20045;-85
2021/11/19 11:00:58;;;;;;;10.65;6.53;;;13.70;93.00;;;;;;5041040;28;20045;-80
2021/11/19 11:03:33;;;;;;;11.20;6.32;;;13.70;93.00;;;;;;5035976;28;20046;-80
2021/11/19 11:06:08;;;;;;;12.30;8.18;;;13.80;92.90;;;;;;5045611;28;20039;-78
2021/11/19 11:08:44;;;;;;;10.57;6.65;;;13.80;92.80;;;;;;5028501;28;20052;-78
2021/11/19 11:11:22;;;;;;;9.07;6.03;;;13.80;92.80;;;;;;5044912;28;20057;-78
2021/11/19 11:14:00;;;;;;;10.75;7.10;;;13.80;92.80;;;;;;5045802;28;20415;-78
2021/11/19 11:16:35;;;;;;;11.50;7.38;;;13.90;92.70;;;;;;5042614;28;20045;-81
2021/11/19 11:19:12;;;;;;;15.13;7.20;;;13.90;92.70;;;;;;5034164;28;20076;-82
2021/11/19 11:21:54;;;;;;;10.27;6.38;;;13.90;92.60;;;;;;5045042;28;20044;-80
2021/11/19 11:24:31;;;;;;;11.77;6.22;;;13.90;92.60;;;;;;5029227;28;20396;-80
2021/11/19 11:27:12;;;;;;;10.10;5.72;;;13.90;92.60;;;;;;5042290;28;20052;-78
2021/11/19 11:29:56;;;;;;;9.82;6.00;;;13.90;92.60;;;;;;5048259;28;20053;-80
2021/11/19 11:32:34;;;;;;;10.23;5.70;;;13.90;92.60;;;;;;5030688;28;20489;-82
2021/11/19 11:35:39;;;;;;;10.45;6.15;;;13.80;92.60;;;;;;5043273;28;20076;-80
2021/11/19 11:38:06;;;;;;;8.25;5.85;;;13.80;92.60;;;;;;5043407;28;20429;-81
2021/11/19 11:41:09;;;;;;;14.05;7.55;;;13.70;92.60;;;;;;5026272;28;20785;-81
2021/11/19 11:43:47;;;;;;;10.50;7.63;;;13.80;92.60;;;;;;5045872;28;20049;-82
2021/11/19 11:46:27;;;;;;;11.32;7.07;;;13.70;92.50;;;;;;5028774;28;20059;-80
2021/11/19 11:49:16;;;;;;;12.68;8.10;;;13.80;92.50;;;;;;5029735;28;20048;-79
2021/11/19 11:52:21;;;;;;;10.32;7.25;;;13.80;92.30;;;;;;5043687;28;20133;-79
2021/11/19 11:55:13;;;;;;;11.38;8.52;;;13.80;92.30;;;;;;5045110;28;20094;-80
2021/11/19 11:57:48;;;;;;;12.00;8.57;;;13.90;92.10;;;;;;5046944;28;20114;-84
2021/11/19 12:00:34;;;;;;;14.43;8.98;;;13.80;92.10;;;;;;5043679;28;20044;-88
2021/11/19 12:03:30;;;;;;;12.93;8.23;;;13.90;91.90;;;;;;5031224;28;20791;-84
2021/11/19 12:06:03;;;;;;;11.35;7.72;;;14.10;91.80;;;;;;5044321;28;20417;-83
2021/11/19 12:08:47;;;;;;;12.10;8.32;;;14.20;91.70;;;;;;5031791;28;20491;-80
2021/11/19 12:11:36;;;;;;;12.02;7.82;;;14.20;91.60;;;;;;5044801;28;20128;-79
2021/11/19 12:14:12;;;;;;;11.75;8.73;;;14.20;91.50;;;;;;5046394;28;20091;-84
2021/11/19 12:17:05;;;;;;;12.45;8.65;;;14.00;91.40;;;;;;5047042;28;20049;-84
2021/11/19 12:19:57;;;;;;;11.75;7.82;;;14.00;91.50;;;;;;5044970;28;20065;-84
2021/11/19 12:22:39;;;;;;;12.70;7.32;;;13.90;91.50;;;;;;5043321;28;20038;-81
2021/11/19 12:25:35;;;;;;;8.23;6.15;;;13.80;91.50;;;;;;5029412;28;20041;-81
2021/11/19 12:28:08;;;;;;;9.02;6.65;;;13.80;91.60;;;;;;5046178;28;20164;-80
2021/11/19 12:31:00;;;;;;;9.85;6.15;;;13.80;91.60;;;;;;5045388;28;20064;-79
2021/11/19 12:33:46;;;;;;;8.00;5.75;;;13.80;91.60;;;;;;5031253;28;20072;-79
2021/11/19 12:36:25;;;;;;;8.27;6.40;;;13.80;91.60;;;;;;5030071;28;20044;-81
2021/11/19 12:38:59;;;;;;;7.18;5.68;;;13.80;91.70;;;;;;5044299;28;20095;-80
2021/11/19 12:41:44;;;;;;;8.88;5.80;;;13.80;91.70;;;;;;5031035;28;20045;-80
2021/11/19 12:44:36;;;;;;;8.55;5.10;;;13.80;91.70;;;;;;5045298;28;20110;-79
2021/11/19 12:47:15;;;;;;;10.02;6.13;;;13.80;91.70;;;;;;5030366;28;20059;-79
2021/11/19 12:50:00;;;;;;;8.45;5.97;;;13.80;91.60;;;;;;5036426;28;20049;-80
2021/11/19 12:52:40;;;;;;;9.05;5.20;;;13.80;91.60;;;;;;5035521;28;20088;-80
2021/11/19 12:55:37;;;;;;;7.82;4.93;;;13.80;91.50;;;;;;5048076;28;20051;-80
2021/11/19 12:58:07;;;;;;;9.20;5.55;;;13.70;91.50;;;;;;5032007;28;20056;-79
2021/11/19 13:00:53;;;;;;;8.35;5.60;;;13.70;91.60;;;;;;5046417;28;20044;-80
2021/11/19 13:03:27;;;;;;;6.85;4.68;;;13.70;91.50;;;;;;5030384;28;20041;-80
2021/11/19 13:06:24;;;;;;;9.88;4.85;;;13.70;91.60;;;;;;5048096;28;20053;-80
2021/11/19 13:09:06;;;;;;;7.32;4.55;;;13.70;91.60;;;;;;5033124;28;20065;-80
2021/11/19 13:12:08;;;;;;;7.75;4.50;;;13.70;91.60;;;;;;5046264;28;20506;-80
2021/11/19 13:14:39;;;;;;;5.65;3.90;;;13.70;91.60;;;;;;5048237;28;20138;-79
2021/11/19 13:17:10;;;;;;;6.53;3.72;;;13.70;91.70;;;;;;5027806;28;20055;-78
2021/11/19 13:19:38;;;;;;;5.22;3.90;;;13.70;91.70;;;;;;5046628;28;20079;-80
2021/11/19 13:22:11;;;;;;;5.10;3.40;;;13.70;91.60;;;;;;5038584;28;20040;-80